createdAt,value
2022-12-09T00:02:02.574Z,100679.78
2022-12-09T00:04:29.299Z,100684.25
2022-12-09T00:06:55.950Z,100680.09
2022-12-09T00:09:22.643Z,100685.69
2022-12-09T00:11:49.128Z,100689.34
2022-12-09T00:14:15.663Z,100680.69
2022-12-09T00:16:42.250Z,100682.50
2022-12-09T00:19:08.835Z,100692.59
2022-12-09T00:21:35.443Z,100679.47
2022-12-09T00:24:07.671Z,100688.72
2022-12-09T00:26:34.563Z,100683.03
2022-12-09T00:29:01.818Z,100679.13
2022-12-09T00:31:32.797Z,100685.59
2022-12-09T00:34:03.495Z,100676.25
2022-12-09T00:36:30.934Z,100677.38
2022-12-09T00:38:58.707Z,100685.94
2022-12-09T00:41:25.721Z,100694.91
2022-12-09T00:43:52.486Z,100697.56
2022-12-09T00:46:19.105Z,100701.50
2022-12-09T00:48:46.503Z,100695.63
2022-12-09T00:51:20.064Z,100700.41
2022-12-09T00:53:47.513Z,100704.34
2022-12-09T00:56:14.754Z,100703.94
2022-12-09T00:58:41.320Z,100699.78
2022-12-09T01:01:07.887Z,100704.38
2022-12-09T01:03:34.725Z,100706.34
2022-12-09T01:06:01.599Z,100705.81
2022-12-09T01:08:28.147Z,100700.63
2022-12-09T01:10:55.099Z,100706.22
2022-12-09T01:13:21.660Z,100700.53
2022-12-09T01:15:48.324Z,100709.63
2022-12-09T01:18:15.038Z,100713.41
2022-12-09T01:20:41.578Z,100709.22
2022-12-09T01:23:08.461Z,100713.84
2022-12-09T01:25:34.996Z,100705.16
2022-12-09T01:28:01.775Z,100713.44
2022-12-09T01:30:28.436Z,100710.78
2022-12-09T01:32:54.972Z,100712.59
2022-12-09T01:35:21.784Z,100716.09
2022-12-09T01:37:49.014Z,100719.44
2022-12-09T01:40:17.720Z,100722.25
2022-12-09T01:42:45.041Z,100718.75
2022-12-09T01:45:20.859Z,100717.63
2022-12-09T01:47:54.377Z,100717.78
2022-12-09T01:50:21.379Z,100716.78
2022-12-09T01:52:49.863Z,100719.28
2022-12-09T01:55:17.539Z,100719.28
2022-12-09T01:57:45.689Z,100716.09
2022-12-09T02:00:13.786Z,100717.91
2022-12-09T02:02:46.872Z,100712.31
2022-12-09T02:05:16.229Z,100709.53
2022-12-09T02:07:47.058Z,100706.16
2022-12-09T02:10:17.429Z,100710.09
2022-12-09T02:13:06.018Z,100708.69
2022-12-09T02:15:42.363Z,100710.94
2022-12-09T02:18:38.541Z,100705.91
2022-12-09T02:21:16.083Z,100707.03
2022-12-09T02:23:57.772Z,100705.78
2022-12-09T02:26:40.776Z,100707.06
2022-12-09T02:29:39.856Z,100703.84
2022-12-09T02:32:30.732Z,100701.63
2022-12-09T02:35:08.399Z,100698.81
2022-12-09T02:38:15.060Z,100689.19
2022-12-09T02:40:58.577Z,100689.06
2022-12-09T02:43:31.714Z,100696.03
2022-12-09T02:46:00.482Z,100696.88
2022-12-09T02:48:34.828Z,100694.22
2022-12-09T02:51:07.511Z,100689.91
2022-12-09T02:53:38.065Z,100694.38
2022-12-09T02:56:07.453Z,100687.53
2022-12-09T02:58:35.189Z,100684.31
2022-12-09T03:01:01.993Z,100688.91
2022-12-09T03:03:34.075Z,100682.91
2022-12-09T03:06:08.314Z,100681.25
2022-12-09T03:08:50.781Z,100683.19
2022-12-09T03:11:20.138Z,100676.38
2022-12-09T03:14:01.314Z,100675.66
2022-12-09T03:16:42.489Z,100674.97
2022-12-09T03:19:19.905Z,100680.56
2022-12-09T03:21:48.866Z,100673.72
2022-12-09T03:24:21.122Z,100666.75
2022-12-09T03:26:49.740Z,100667.84
2022-12-09T03:29:20.978Z,100672.88
2022-12-09T03:31:49.322Z,100670.22
2022-12-09T03:34:20.080Z,100672.31
2022-12-09T03:36:49.208Z,100673.16
2022-12-09T03:39:21.224Z,100674.97
2022-12-09T03:41:52.981Z,100671.63
2022-12-09T03:44:25.023Z,100670.94
2022-12-09T03:46:51.963Z,100670.25
2022-12-09T03:49:18.973Z,100660.91
2022-12-09T03:52:07.931Z,100663.66
2022-12-09T03:54:46.100Z,100668.41
2022-12-09T03:57:18.760Z,100667.00
2022-12-09T03:59:52.735Z,100667.31
2022-12-09T04:02:20.348Z,100660.47
2022-12-09T04:04:47.515Z,100659.91
2022-12-09T04:07:14.414Z,100655.84
2022-12-09T04:09:41.352Z,100657.00
2022-12-09T04:12:08.259Z,100663.41
2022-12-09T04:14:35.031Z,100662.00
2022-12-09T04:17:02.364Z,100656.69
2022-12-09T04:19:28.963Z,100659.47
2022-12-09T04:21:55.418Z,100662.28
2022-12-09T04:24:22.103Z,100658.38
2022-12-09T04:26:48.892Z,100656.97
2022-12-09T04:29:15.409Z,100659.47
2022-12-09T04:31:42.213Z,100657.81
2022-12-09T04:34:09.791Z,100659.75
2022-12-09T04:36:37.437Z,100660.16
2022-12-09T04:39:04.219Z,100651.63
2022-12-09T04:41:30.994Z,100656.25
2022-12-09T04:43:57.588Z,100651.06
2022-12-09T04:46:24.899Z,100660.28
2022-12-09T04:48:52.739Z,100655.38
2022-12-09T04:51:19.550Z,100653.16
2022-12-09T04:53:46.354Z,100658.59
2022-12-09T04:56:21.628Z,100660.81
2022-12-09T04:58:50.002Z,100649.66
2022-12-09T05:01:22.655Z,100647.00
2022-12-09T05:03:54.120Z,100652.16
2022-12-09T05:06:22.080Z,100651.88
2022-12-09T05:08:49.377Z,100652.00
2022-12-09T05:11:18.647Z,100646.72
2022-12-09T05:13:45.976Z,100648.41
2022-12-09T05:16:16.973Z,100646.84
2022-12-09T05:18:45.043Z,100649.50
2022-12-09T05:21:16.636Z,100652.16
2022-12-09T05:23:43.879Z,100651.59
2022-12-09T05:26:13.227Z,100651.72
2022-12-09T05:28:40.221Z,100650.06
2022-12-09T05:31:11.076Z,100646.84
2022-12-09T05:33:38.023Z,100645.03
2022-12-09T05:36:08.790Z,100645.88
2022-12-09T05:38:35.446Z,100642.38
2022-12-09T05:41:02.181Z,100643.22
2022-12-09T05:43:28.928Z,100638.75
2022-12-09T05:45:55.887Z,100644.03
2022-12-09T05:48:22.752Z,100638.06
2022-12-09T05:51:00.804Z,100637.19
2022-12-09T05:53:27.833Z,100647.78
2022-12-09T05:55:54.841Z,100644.31
2022-12-09T05:58:21.703Z,100646.13
2022-12-09T06:00:49.098Z,100644.31
2022-12-09T06:03:16.215Z,100641.81
2022-12-09T06:05:43.528Z,100641.09
2022-12-09T06:08:10.661Z,100646.13
2022-12-09T06:10:41.379Z,100641.66
2022-12-09T06:13:08.655Z,100645.03
2022-12-09T06:15:35.485Z,100636.25
2022-12-09T06:18:03.053Z,100633.72
2022-12-09T06:20:30.005Z,100632.88
2022-12-09T06:22:57.023Z,100625.09
2022-12-09T06:25:24.003Z,100627.84
2022-12-09T06:27:51.930Z,100636.91
2022-12-09T06:30:18.548Z,100627.16
2022-12-09T06:32:45.965Z,100629.09
2022-12-09T06:35:13.440Z,100631.16
2022-12-09T06:37:40.391Z,100627.56
2022-12-09T06:40:07.916Z,100635.38
2022-12-09T06:42:34.935Z,100635.38
2022-12-09T06:45:01.849Z,100640.53
2022-12-09T06:47:28.506Z,100630.78
2022-12-09T06:50:04.373Z,100629.66
2022-12-09T06:52:33.052Z,100627.00
2022-12-09T06:54:59.949Z,100626.31
2022-12-09T06:57:26.838Z,100622.97
2022-12-09T06:59:53.864Z,100623.09
2022-12-09T07:02:20.730Z,100629.50
2022-12-09T07:04:47.868Z,100636.47
2022-12-09T07:07:15.869Z,100632.97
2022-12-09T07:09:42.760Z,100646.09
2022-12-09T07:12:09.305Z,100636.34
2022-12-09T07:14:36.930Z,100641.75
2022-12-09T07:17:04.596Z,100632.03
2022-12-09T07:19:31.502Z,100632.03
2022-12-09T07:21:58.063Z,100632.03
2022-12-09T07:24:25.492Z,100644.28
2022-12-09T07:26:52.648Z,100637.31
2022-12-09T07:29:19.569Z,100628.97
2022-12-09T07:31:47.665Z,100631.63
2022-12-09T07:34:14.512Z,100635.38
2022-12-09T07:36:41.516Z,100633.13
2022-12-09T07:39:12.193Z,100638.44
2022-12-09T07:41:40.010Z,100636.38
2022-12-09T07:44:06.852Z,100640.00
2022-12-09T07:46:34.010Z,100639.28
2022-12-09T07:49:02.753Z,100635.09
2022-12-09T07:51:30.300Z,100643.16
2022-12-09T07:53:57.291Z,100634.53
2022-12-09T07:56:24.862Z,100647.78
2022-12-09T07:58:53.345Z,100648.59
2022-12-09T08:01:26.901Z,100649.44
2022-12-09T08:03:54.498Z,100645.69
2022-12-09T08:06:24.456Z,100650.72
2022-12-09T08:08:51.969Z,100654.06
2022-12-09T08:11:22.311Z,100658.28
2022-12-09T08:13:49.721Z,100661.50
2022-12-09T08:16:18.537Z,100659.69
2022-12-09T08:18:46.324Z,100663.16
2022-12-09T08:21:21.199Z,100668.19
2022-12-09T08:23:48.717Z,100667.22
2022-12-09T08:26:17.895Z,100672.38
2022-12-09T08:28:44.543Z,100672.38
2022-12-09T08:31:16.605Z,100677.56
2022-12-09T08:33:43.496Z,100668.63
2022-12-09T08:36:13.867Z,100671.00
2022-12-09T08:38:40.762Z,100671.84
2022-12-09T08:41:20.904Z,100670.03
2022-12-09T08:43:48.460Z,100671.84
2022-12-09T08:46:15.538Z,100662.75
2022-12-09T08:48:43.525Z,100665.97
2022-12-09T08:51:12.296Z,100668.22
2022-12-09T08:53:39.959Z,100667.84
2022-12-09T08:56:14.592Z,100666.59
2022-12-09T08:58:42.373Z,100670.63
2022-12-09T09:01:16.401Z,100665.88
2022-12-09T09:03:43.785Z,100672.03
2022-12-09T09:06:11.476Z,100658.63
2022-12-09T09:08:39.415Z,100660.31
2022-12-09T09:11:11.350Z,100654.31
2022-12-09T09:13:39.944Z,100658.06
2022-12-09T09:16:16.610Z,100658.06
2022-12-09T09:18:43.798Z,100656.41
2022-12-09T09:21:12.615Z,100657.66
2022-12-09T09:23:41.428Z,100660.19
2022-12-09T09:26:13.233Z,100667.00
2022-12-09T09:28:40.623Z,100665.91
2022-12-09T09:31:10.828Z,100669.41
2022-12-09T09:33:38.103Z,100671.88
2022-12-09T09:36:10.246Z,100669.13
2022-12-09T09:38:37.613Z,100671.63
2022-12-09T09:41:16.662Z,100664.38
2022-12-09T09:43:44.584Z,100672.34
2022-12-09T09:46:20.869Z,100670.38
2022-12-09T09:48:48.900Z,100673.84
2022-12-09T09:51:19.202Z,100681.69
2022-12-09T09:53:50.671Z,100686.16
2022-12-09T09:56:28.475Z,100686.28
2022-12-09T09:59:17.781Z,100688.25
2022-12-09T10:02:09.975Z,100688.25
2022-12-09T10:04:54.041Z,100688.38
2022-12-09T10:07:42.888Z,100693.81
2022-12-09T10:10:31.557Z,100690.44
2022-12-09T10:13:30.941Z,100701.34
2022-12-09T10:16:12.548Z,100700.38
2022-12-09T10:18:57.793Z,100700.38
2022-12-09T10:21:29.457Z,100688.22
2022-12-09T10:23:57.716Z,100694.81
2022-12-09T10:26:31.369Z,100697.16
2022-12-09T10:29:14.180Z,100698.84
2022-12-09T10:31:41.218Z,100694.22
2022-12-09T10:34:10.309Z,100695.06
2022-12-09T10:36:39.391Z,100693.25
2022-12-09T10:39:06.107Z,100700.53
2022-12-09T10:42:03.856Z,100703.03
2022-12-09T10:44:31.091Z,100692.69
2022-12-09T10:47:28.173Z,100682.78
2022-12-09T10:49:55.636Z,100679.47
2022-12-09T10:52:25.881Z,100675.53
2022-12-09T10:54:52.960Z,100680.44
2022-12-09T10:57:19.621Z,100677.22
2022-12-09T11:00:00.083Z,100677.22
2022-12-09T11:02:27.858Z,100674.56
2022-12-09T11:04:54.915Z,100678.88
2022-12-09T11:07:25.014Z,100673.56
2022-12-09T11:10:07.521Z,100665.91
2022-12-09T11:12:41.320Z,100670.41
2022-12-09T11:15:30.389Z,100668.69
2022-12-09T11:18:05.117Z,100671.34
2022-12-09T11:20:34.603Z,100656.97
2022-12-09T11:23:15.213Z,100660.31
2022-12-09T11:25:55.667Z,100669.41
2022-12-09T11:28:26.154Z,100663.00
2022-12-09T11:33:56.896Z,100664.50
2022-12-09T11:36:48.528Z,100666.19
2022-12-09T11:39:31.806Z,100662.84
2022-12-09T11:42:16.961Z,100664.50
2022-12-09T11:45:15.988Z,100660.31
2022-12-09T11:50:36.746Z,100664.63
2022-12-09T11:53:12.467Z,100671.47
2022-12-09T11:55:46.012Z,100675.53
2022-12-09T11:58:18.855Z,100680.41
2022-12-09T12:00:51.736Z,100686.56
2022-12-09T12:03:37.614Z,100685.44
2022-12-09T12:06:11.545Z,100686.44
2022-12-09T12:08:47.401Z,100685.59
2022-12-09T12:11:28.873Z,100682.94
2022-12-09T12:14:11.567Z,100671.88
2022-12-09T12:16:51.333Z,100671.47
2022-12-09T12:19:28.149Z,100663.22
2022-12-09T12:22:31.594Z,100669.25
2022-12-09T12:25:15.693Z,100662.78
2022-12-09T12:27:50.910Z,100648.28
2022-12-09T12:30:24.080Z,100647.72
2022-12-09T12:36:09.798Z,100646.47
2022-12-09T12:38:54.316Z,100646.28
2022-12-09T12:41:42.752Z,100660.09
2022-12-09T12:45:05.336Z,100652.75
2022-12-09T12:47:40.750Z,100640.88
2022-12-09T12:50:25.015Z,100643.13
2022-12-09T12:53:20.256Z,100643.56
2022-12-09T12:56:04.856Z,100645.25
2022-12-09T12:58:45.682Z,100642.47
2022-12-09T13:01:22.391Z,100640.47
2022-12-09T13:04:13.371Z,100640.75
2022-12-09T13:07:00.188Z,100637.88
2022-12-09T13:09:38.450Z,100634.22
2022-12-09T13:12:13.835Z,100639.53
2022-12-09T13:14:52.039Z,100632.00
2022-12-09T13:17:21.146Z,100643.75
2022-12-09T13:19:52.143Z,100641.69
2022-12-09T13:22:22.291Z,100643.63
2022-12-09T13:25:00.424Z,100636.66
2022-12-09T13:28:03.870Z,100633.75
2022-12-09T13:30:39.842Z,100636.41
2022-12-09T13:33:21.877Z,100631.16
2022-12-09T13:36:16.069Z,100635.66
2022-12-09T13:38:43.001Z,100623.81
2022-12-09T13:41:31.315Z,100627.75
2022-12-09T13:44:07.198Z,100628.19
2022-12-09T13:46:34.292Z,100618.00
2022-12-09T13:49:10.862Z,100625.88
2022-12-09T13:52:03.483Z,100619.72
2022-12-09T13:54:30.317Z,100613.72
2022-12-09T13:57:11.027Z,100616.22
2022-12-09T13:59:43.529Z,100619.84
2022-12-09T14:02:16.889Z,100613.59
2022-12-09T14:04:51.493Z,100613.25
2022-12-09T14:07:42.948Z,100618.28
2022-12-09T14:10:37.279Z,100617.50
2022-12-09T14:13:05.443Z,100621.88
2022-12-09T14:15:34.482Z,100616.84
2022-12-09T14:18:04.035Z,100611.66
2022-12-09T14:20:38.004Z,100613.09
2022-12-09T14:23:11.273Z,100618.00
2022-12-09T14:25:37.696Z,100624.59
2022-12-09T14:28:09.907Z,100623.66
2022-12-09T14:30:49.747Z,100621.44
2022-12-09T14:33:32.282Z,100628.00
2022-12-09T14:36:28.344Z,100620.03
2022-12-09T14:39:33.390Z,100621.72
2022-12-09T14:42:09.345Z,100620.03
2022-12-09T14:44:56.463Z,100617.66
2022-12-09T14:47:28.177Z,100619.91
2022-12-09T14:50:03.534Z,100613.63
2022-12-09T14:52:32.903Z,100631.06
2022-12-09T14:55:04.232Z,100625.63
2022-12-09T14:57:36.668Z,100625.94
2022-12-09T15:00:06.033Z,100634.31
2022-12-09T15:02:32.942Z,100631.53
2022-12-09T15:05:01.663Z,100628.72
2022-12-09T15:07:30.371Z,100631.25
2022-12-09T15:09:57.973Z,100629.28
2022-12-09T15:12:31.842Z,100634.44
2022-12-09T15:15:20.822Z,100635.69
2022-12-09T15:17:53.597Z,100633.19
2022-12-09T15:20:36.327Z,100629.28
2022-12-09T15:23:16.274Z,100635.41
2022-12-09T15:25:47.910Z,100630.94
2022-12-09T15:28:19.265Z,100634.44
2022-12-09T15:30:55.290Z,100634.44
2022-12-09T15:33:21.852Z,100636.81
2022-12-09T15:35:59.252Z,100640.19
2022-12-09T15:38:28.672Z,100641.00
2022-12-09T15:41:16.521Z,100633.03
2022-12-09T15:43:44.203Z,100637.41
2022-12-09T15:46:12.347Z,100637.53
2022-12-09T15:48:44.669Z,100640.47
2022-12-09T15:51:18.242Z,100639.63
2022-12-09T15:54:01.040Z,100637.81
2022-12-09T15:56:38.229Z,100642.28
2022-12-09T15:59:14.130Z,100642.97
2022-12-09T16:01:49.054Z,100636.69
2022-12-09T16:04:19.706Z,100634.31
2022-12-09T16:06:47.401Z,100638.78
2022-12-09T16:09:16.639Z,100628.03
2022-12-09T16:11:48.989Z,100635.88
2022-12-09T16:14:17.473Z,100633.50
2022-12-09T16:16:55.640Z,100633.91
2022-12-09T16:19:42.304Z,100643.13
2022-12-09T16:22:21.185Z,100642.59
2022-12-09T16:25:20.830Z,100644.13
2022-12-09T16:27:50.429Z,100656.16
2022-12-09T16:30:23.535Z,100654.88
2022-12-09T16:33:01.734Z,100650.81
2022-12-09T16:35:37.572Z,100653.91
2022-12-09T16:38:09.707Z,100650.56
2022-12-09T16:40:45.260Z,100654.75
2022-12-09T16:43:17.494Z,100647.91
2022-12-09T16:45:55.158Z,100649.03
2022-12-09T16:48:24.474Z,100654.75
2022-12-09T16:50:57.659Z,100650.41
2022-12-09T16:53:29.464Z,100648.59
2022-12-09T16:56:01.784Z,100654.88
2022-12-09T16:58:31.828Z,100655.00
2022-12-09T17:00:59.835Z,100653.50
2022-12-09T17:03:38.725Z,100665.22
2022-12-09T17:06:05.913Z,100655.44
2022-12-09T17:08:32.304Z,100661.72
2022-12-09T17:10:59.620Z,100666.47
2022-12-09T17:13:26.437Z,100670.25
2022-12-09T17:15:58.107Z,100677.22
2022-12-09T17:18:25.649Z,100679.88
2022-12-09T17:21:07.808Z,100680.16
2022-12-09T17:23:39.638Z,100673.28
2022-12-09T17:26:09.075Z,100673.44
2022-12-09T17:28:35.765Z,100678.47
2022-12-09T17:31:07.659Z,100680.16
2022-12-09T17:33:34.152Z,100680.28
2022-12-09T17:36:00.597Z,100691.72
2022-12-09T17:38:29.423Z,100681.13
2022-12-09T17:40:56.730Z,100683.91
2022-12-09T17:43:23.174Z,100685.16
2022-12-09T17:45:51.989Z,100688.94
2022-12-09T17:48:18.538Z,100693.53
2022-12-09T17:50:45.015Z,100685.84
2022-12-09T17:53:11.387Z,100677.75
2022-12-09T17:55:39.084Z,100677.88
2022-12-09T17:58:05.528Z,100685.97
2022-12-09T18:00:33.610Z,100684.03
2022-12-09T18:03:00.227Z,100686.97
2022-12-09T18:05:26.691Z,100684.59
2022-12-09T18:07:53.198Z,100682.91
2022-12-09T18:10:19.699Z,100689.63
2022-12-09T18:12:46.056Z,100685.84
2022-12-09T18:15:13.205Z,100690.19
2022-12-09T18:17:40.972Z,100678.59
2022-12-09T18:20:08.088Z,100682.22
2022-12-09T18:22:34.787Z,100689.34
2022-12-09T18:25:01.148Z,100688.34
2022-12-09T18:27:27.545Z,100692.94
2022-12-09T18:29:53.936Z,100691.81
2022-12-09T18:32:20.476Z,100692.53
2022-12-09T18:34:46.836Z,100691.53
2022-12-09T18:37:13.288Z,100690.56
2022-12-09T18:39:39.655Z,100691.41
2022-12-09T18:42:06.595Z,100698.81
2022-12-09T18:44:33.034Z,100701.31
2022-12-09T18:47:00.200Z,100697.69
2022-12-09T18:49:28.303Z,100707.03
2022-12-09T18:51:55.719Z,100697.72
2022-12-09T18:54:27.461Z,100703.59
2022-12-09T18:56:55.912Z,100706.66
2022-12-09T18:59:25.245Z,100712.22
2022-12-09T19:01:52.586Z,100714.31
2022-12-09T19:04:22.626Z,100719.34
2022-12-09T19:06:51.407Z,100709.31
2022-12-09T19:09:23.233Z,100717.53
2022-12-09T19:11:50.893Z,100716.69
2022-12-09T19:14:19.229Z,100725.47
2022-12-09T19:16:46.240Z,100710.81
2022-12-09T19:19:14.866Z,100714.47
2022-12-09T19:21:42.269Z,100716.97
2022-12-09T19:24:14.200Z,100723.66
2022-12-09T19:26:42.578Z,100713.06
2022-12-09T19:29:10.801Z,100712.78
2022-12-09T19:31:43.086Z,100719.06
2022-12-09T19:34:21.098Z,100703.28
2022-12-09T19:36:49.053Z,100720.03
2022-12-09T19:39:17.444Z,100722.69
2022-12-09T19:41:44.884Z,100724.25
2022-12-09T19:44:21.694Z,100719.63
2022-12-09T19:46:57.849Z,100717.81
2022-12-09T19:49:24.415Z,100717.41
2022-12-09T19:51:51.325Z,100723.28
2022-12-09T19:54:17.995Z,100722.41
2022-12-09T19:56:45.009Z,100722.56
2022-12-09T19:59:11.860Z,100726.31
2022-12-09T20:01:42.201Z,100729.28
2022-12-09T20:04:47.019Z,100736.81
2022-12-09T20:07:06.382Z,100735.44
2022-12-09T20:09:34.996Z,100734.47
2022-12-09T20:12:01.389Z,100745.63
2022-12-09T20:14:27.778Z,100751.63
2022-12-09T20:16:54.146Z,100748.72
2022-12-09T20:19:20.557Z,100744.09
2022-12-09T20:21:46.949Z,100757.91
2022-12-09T20:24:13.369Z,100761.00
2022-12-09T20:26:40.962Z,100755.97
2022-12-09T20:29:10.735Z,100761.97
2022-12-09T20:31:38.923Z,100755.41
2022-12-09T20:34:08.887Z,100754.56
2022-12-09T20:36:36.522Z,100751.34
2022-12-09T20:39:06.658Z,100759.72
2022-12-09T20:41:33.242Z,100759.63
2022-12-09T20:44:00.429Z,100760.88
2022-12-09T20:46:30.791Z,100761.25
2022-12-09T20:48:58.552Z,100768.94
2022-12-09T20:51:36.660Z,100782.06
2022-12-09T20:54:05.133Z,100763.34
2022-12-09T20:56:33.119Z,100768.53
2022-12-09T20:59:00.364Z,100759.59
2022-12-09T21:01:35.239Z,100764.06
2022-12-09T21:04:05.771Z,100760.56
2022-12-09T21:06:34.778Z,100776.44
2022-12-09T21:09:02.906Z,100781.06
2022-12-09T21:11:29.327Z,100778.78
2022-12-09T21:14:00.843Z,100776.28
2022-12-09T21:16:32.773Z,100777.00
2022-12-09T21:19:10.001Z,100768.31
2022-12-09T21:21:38.258Z,100768.59
2022-12-09T21:24:05.036Z,100766.22
2022-12-09T21:26:31.517Z,100767.91
2022-12-09T21:29:00.743Z,100764.28
2022-12-09T21:31:30.262Z,100757.97
2022-12-09T21:33:58.926Z,100765.50
2022-12-09T21:36:27.615Z,100763.59
2022-12-09T21:38:54.956Z,100760.63
2022-12-09T21:41:24.832Z,100765.09
2022-12-09T21:43:52.412Z,100765.94
2022-12-09T21:46:21.338Z,100761.06
2022-12-09T21:48:51.968Z,100757.41
2022-12-09T21:51:19.521Z,100759.94
2022-12-09T21:53:46.552Z,100755.22
2022-12-09T21:56:15.939Z,100759.69
2022-12-09T21:58:44.049Z,100757.16
2022-12-09T22:01:13.965Z,100758.69
2022-12-09T22:03:41.926Z,100770.00
2022-12-09T22:06:09.547Z,100762.63
2022-12-09T22:08:37.473Z,100764.28
2022-12-09T22:11:11.777Z,100763.59
2022-12-09T22:13:39.711Z,100766.09
2022-12-09T22:16:15.156Z,100765.25
2022-12-09T22:18:42.351Z,100771.41
2022-12-09T22:21:28.645Z,100755.50
2022-12-09T22:23:58.614Z,100768.75
2022-12-09T22:26:26.007Z,100774.06
2022-12-09T22:28:53.177Z,100774.88
2022-12-09T22:31:22.874Z,100775.19
2022-12-09T22:33:51.451Z,100779.34
2022-12-09T22:36:18.680Z,100776.44
2022-12-09T22:38:45.486Z,100775.88
2022-12-09T22:41:15.216Z,100779.34
2022-12-09T22:43:42.559Z,100769.72
2022-12-09T22:46:14.877Z,100775.44
2022-12-09T22:48:42.046Z,100778.25
2022-12-09T22:51:12.182Z,100780.75
2022-12-09T22:53:39.551Z,100776.13
2022-12-09T22:56:06.724Z,100775.75
2022-12-09T22:58:34.792Z,100776.72
2022-12-09T23:01:01.741Z,100771.28
2022-12-09T23:03:28.412Z,100770.44
2022-12-09T23:05:55.195Z,100780.06
2022-12-09T23:08:22.315Z,100774.78
2022-12-09T23:10:48.915Z,100772.81
2022-12-09T23:13:15.397Z,100774.88
2022-12-09T23:15:41.861Z,100776.72
2022-12-09T23:18:08.318Z,100776.28
2022-12-09T23:20:34.995Z,100772.66
2022-12-09T23:23:01.492Z,100770.00
2022-12-09T23:25:27.943Z,100777.94
2022-12-09T23:27:54.359Z,100775.31
2022-12-09T23:30:20.807Z,100775.31
2022-12-09T23:32:47.157Z,100776.13
2022-12-09T23:35:13.599Z,100778.78
2022-12-09T23:37:40.036Z,100779.78
2022-12-09T23:40:07.480Z,100774.34
2022-12-09T23:42:34.104Z,100780.50
2022-12-09T23:45:00.554Z,100780.50
2022-12-09T23:47:26.944Z,100778.25
2022-12-09T23:49:53.367Z,100786.19
2022-12-09T23:52:19.749Z,100786.47
2022-12-09T23:54:46.133Z,100784.22
2022-12-09T23:57:12.594Z,100790.34
2022-12-09T23:59:39.027Z,100790.88
